Time;durP1;ratioP1;P1;durP2;ratioP2;P2;SDS_P1;SDS_P2;PMS_P1;PMS_P2;Temp;Humidity;BMP_temperature;BMP_pressure;BME280_temperature;BME280_humidity;BME280_pressure;Samples;Min_cycle;Max_cycle;Signal;HPM_P1;HPM_P2
2022/03/02 00:01:59;;;;;;;21.45;3.95;;;6.10;99.90;;;;;;5013919;28;20056;-63
2022/03/02 00:04:27;;;;;;;7.70;3.00;;;6.10;99.90;;;;;;5043352;28;20041;-64
2022/03/02 00:06:55;;;;;;;17.45;3.83;;;6.10;99.90;;;;;;5049243;28;20056;-62
2022/03/02 00:09:22;;;;;;;16.33;2.85;;;6.10;99.90;;;;;;5063989;28;20048;-62
2022/03/02 00:11:50;;;;;;;23.00;4.88;;;6.10;99.90;;;;;;5033482;28;20052;-62
2022/03/02 00:14:18;;;;;;;13.55;2.95;;;6.10;99.90;;;;;;5044101;28;20040;-62
2022/03/02 00:16:45;;;;;;;14.48;3.53;;;6.10;99.90;;;;;;5012819;28;20065;-62
2022/03/02 00:19:13;;;;;;;9.25;2.50;;;6.10;99.90;;;;;;5045579;28;20449;-61
2022/03/02 00:21:41;;;;;;;8.60;2.67;;;6.10;99.90;;;;;;5048924;28;20058;-62
2022/03/02 00:24:09;;;;;;;15.35;4.22;;;6.10;99.90;;;;;;5051209;28;20047;-62
2022/03/02 00:26:37;;;;;;;17.95;3.35;;;6.10;99.90;;;;;;5032873;28;20071;-62
2022/03/02 00:29:05;;;;;;;17.77;4.43;;;6.10;99.90;;;;;;5056859;28;20041;-61
2022/03/02 00:31:33;;;;;;;9.20;3.00;;;6.10;99.90;;;;;;5039421;28;20049;-62
2022/03/02 00:34:01;;;;;;;10.30;3.05;;;6.10;99.90;;;;;;5056104;28;20489;-63
2022/03/02 00:36:28;;;;;;;12.43;3.35;;;6.10;99.90;;;;;;5041091;28;20061;-61
2022/03/02 00:38:56;;;;;;;14.98;3.58;;;6.10;99.90;;;;;;5037337;28;20045;-62
2022/03/02 00:41:24;;;;;;;11.07;2.67;;;6.10;99.90;;;;;;5042688;28;20396;-61
2022/03/02 00:43:52;;;;;;;12.93;2.88;;;6.00;99.90;;;;;;5043389;28;20384;-61
2022/03/02 00:46:20;;;;;;;14.30;3.70;;;6.00;99.90;;;;;;5048143;28;20053;-61
2022/03/02 00:48:48;;;;;;;9.43;2.97;;;6.00;99.90;;;;;;5042009;28;20048;-61
2022/03/02 00:51:16;;;;;;;12.45;4.13;;;6.00;99.90;;;;;;5039672;28;20481;-62
2022/03/02 00:53:44;;;;;;;7.00;2.45;;;6.00;99.90;;;;;;5053439;28;20063;-63
2022/03/02 00:56:11;;;;;;;10.88;3.53;;;5.90;99.90;;;;;;5067134;28;20048;-62
2022/03/02 00:58:39;;;;;;;11.73;3.55;;;5.90;99.90;;;;;;5045074;28;20089;-63
2022/03/02 01:01:07;;;;;;;11.73;4.13;;;5.90;99.90;;;;;;5044794;28;20056;-62
2022/03/02 01:03:35;;;;;;;11.90;4.05;;;5.90;99.90;;;;;;5041446;28;20382;-62
2022/03/02 01:06:03;;;;;;;12.45;3.97;;;5.80;99.90;;;;;;5026885;28;20052;-61
2022/03/02 01:08:33;;;;;;;8.32;3.45;;;5.80;99.90;;;;;;5027867;28;20053;-61
2022/03/02 01:11:02;;;;;;;7.63;4.15;;;5.80;99.90;;;;;;5009759;28;20053;-62
2022/03/02 01:13:30;;;;;;;13.65;4.57;;;5.70;99.90;;;;;;5033589;28;20045;-61
2022/03/02 01:15:57;;;;;;;11.75;4.82;;;5.70;99.90;;;;;;5046841;28;20052;-61
2022/03/02 01:18:25;;;;;;;14.13;5.00;;;5.70;99.90;;;;;;5053852;28;20040;-62
2022/03/02 01:20:53;;;;;;;13.10;5.38;;;5.70;99.90;;;;;;5038340;28;20041;-62
2022/03/02 01:23:21;;;;;;;13.13;5.05;;;5.70;99.90;;;;;;5040506;28;20068;-62
2022/03/02 01:25:48;;;;;;;15.13;5.65;;;5.70;99.90;;;;;;5011697;28;20057;-61
2022/03/02 01:28:17;;;;;;;13.93;5.22;;;5.70;99.90;;;;;;5015651;28;20060;-62
2022/03/02 01:30:44;;;;;;;14.07;6.45;;;5.60;99.90;;;;;;5028223;28;20056;-62
2022/03/02 01:33:12;;;;;;;13.57;5.90;;;5.70;99.90;;;;;;5018941;28;20049;-62
2022/03/02 01:35:40;;;;;;;15.63;6.30;;;5.60;99.90;;;;;;5019936;28;20049;-63
2022/03/02 01:38:08;;;;;;;13.63;6.18;;;5.70;99.90;;;;;;5035901;28;20408;-63
2022/03/02 01:40:36;;;;;;;16.08;6.20;;;5.60;99.90;;;;;;5037227;28;20420;-66
2022/03/02 01:43:04;;;;;;;15.98;5.70;;;5.60;99.90;;;;;;5045528;28;20497;-63
2022/03/02 01:45:32;;;;;;;13.20;6.32;;;5.60;99.90;;;;;;5038817;28;20535;-66
2022/03/02 01:48:01;;;;;;;16.55;6.38;;;5.60;99.90;;;;;;5048780;28;20056;-66
2022/03/02 01:50:30;;;;;;;10.50;5.53;;;5.70;99.90;;;;;;5032602;28;20050;-66
2022/03/02 01:52:58;;;;;;;12.98;6.85;;;5.70;99.90;;;;;;5035497;28;20046;-66
2022/03/02 01:55:27;;;;;;;10.18;5.68;;;5.70;99.90;;;;;;5071443;28;20046;-66
2022/03/02 01:57:57;;;;;;;12.77;6.43;;;5.70;99.90;;;;;;5049979;28;20052;-65
2022/03/02 02:00:24;;;;;;;;;;;5.70;99.90;;;;;;5051017;28;20052;-65
2022/03/02 02:02:52;;;;;;;16.48;5.30;;;5.70;99.90;;;;;;5050146;28;19944;-66
2022/03/02 02:05:21;;;;;;;15.77;6.38;;;5.70;99.90;;;;;;5047723;28;20046;-65
2022/03/02 02:07:49;;;;;;;17.17;6.43;;;5.70;99.90;;;;;;5038505;28;20060;-65
2022/03/02 02:10:17;;;;;;;15.43;6.78;;;5.70;99.90;;;;;;5020141;28;20049;-66
2022/03/02 02:12:45;;;;;;;15.93;7.32;;;5.70;99.90;;;;;;5033662;28;20052;-64
2022/03/02 02:15:13;;;;;;;16.08;6.22;;;5.70;99.90;;;;;;5041961;28;20065;-66
2022/03/02 02:17:41;;;;;;;13.10;6.10;;;5.70;99.90;;;;;;5040302;28;20049;-66
2022/03/02 02:20:10;;;;;;;14.88;6.35;;;5.70;99.90;;;;;;5048858;28;20052;-63
2022/03/02 02:22:45;;;;;;;18.63;7.68;;;5.80;99.90;;;;;;5060265;28;20033;-63
2022/03/02 02:25:14;;;;;;;17.27;7.22;;;5.80;99.90;;;;;;5053188;28;20071;-61
2022/03/02 02:27:48;;;;;;;15.10;6.47;;;5.80;99.90;;;;;;5032649;28;20054;-65
2022/03/02 02:30:16;;;;;;;18.58;7.32;;;5.80;99.90;;;;;;5051461;28;20523;-61
2022/03/02 02:32:44;;;;;;;19.60;6.80;;;5.70;99.90;;;;;;5044476;28;20045;-61
2022/03/02 02:35:15;;;;;;;17.33;7.53;;;5.80;99.90;;;;;;5039167;28;20048;-62
2022/03/02 02:37:43;;;;;;;18.08;5.88;;;5.70;99.90;;;;;;5039085;28;20366;-63
2022/03/02 02:40:14;;;;;;;14.73;7.10;;;5.70;99.90;;;;;;5074295;28;20055;-63
2022/03/02 02:42:45;;;;;;;17.55;6.57;;;5.70;99.90;;;;;;5035638;28;20053;-62
2022/03/02 02:45:17;;;;;;;13.25;6.15;;;5.70;99.90;;;;;;5033646;28;20056;-62
2022/03/02 02:47:45;;;;;;;14.88;6.72;;;5.70;99.90;;;;;;5045682;28;20045;-63
2022/03/02 02:50:18;;;;;;;16.55;6.38;;;5.80;99.90;;;;;;5054272;28;20056;-63
2022/03/02 02:52:46;;;;;;;16.13;6.50;;;5.70;99.90;;;;;;5048425;28;20046;-63
2022/03/02 02:55:15;;;;;;;13.73;5.78;;;5.70;99.90;;;;;;5043756;28;20492;-65
2022/03/02 02:57:43;;;;;;;15.40;5.78;;;5.80;99.90;;;;;;5033008;28;20040;-66
2022/03/02 03:00:14;;;;;;;14.73;5.00;;;5.80;99.90;;;;;;5034184;28;20052;-65
2022/03/02 03:02:44;;;;;;;11.05;4.97;;;5.80;99.90;;;;;;5026234;28;20049;-66
2022/03/02 03:05:14;;;;;;;8.88;4.68;;;5.80;99.90;;;;;;5034898;28;20042;-65
2022/03/02 03:07:42;;;;;;;;;;;5.80;99.90;;;;;;5032764;28;20045;-66
2022/03/02 03:10:11;;;;;;;11.95;4.38;;;5.80;99.90;;;;;;5053759;28;20387;-66
2022/03/02 03:12:40;;;;;;;10.30;4.10;;;5.80;99.90;;;;;;5053380;28;20334;-66
2022/03/02 03:15:09;;;;;;;9.23;4.07;;;5.80;99.90;;;;;;5050951;28;20037;-65
2022/03/02 03:17:37;;;;;;;9.52;3.90;;;5.90;99.90;;;;;;5033808;28;20511;-65
2022/03/02 03:20:07;;;;;;;9.68;4.60;;;5.90;99.90;;;;;;5034769;28;20184;-65
2022/03/02 03:22:35;;;;;;;8.27;3.65;;;5.90;99.90;;;;;;5055737;28;20550;-65
2022/03/02 03:25:04;;;;;;;13.43;4.45;;;5.90;99.90;;;;;;5073713;28;20131;-66
2022/03/02 03:27:32;;;;;;;7.63;4.05;;;5.90;99.90;;;;;;5058147;28;20038;-66
2022/03/02 03:30:00;;;;;;;7.80;3.72;;;5.90;99.90;;;;;;5051215;28;20045;-65
2022/03/02 03:32:28;;;;;;;7.43;3.55;;;5.90;99.90;;;;;;5044551;28;20045;-66
2022/03/02 03:34:56;;;;;;;9.82;4.07;;;5.90;99.90;;;;;;5047392;28;20052;-65
2022/03/02 03:37:24;;;;;;;7.88;3.92;;;5.90;99.90;;;;;;5053047;28;20211;-65
2022/03/02 03:39:51;;;;;;;6.88;3.60;;;6.00;99.90;;;;;;5050766;28;20045;-66
2022/03/02 03:42:20;;;;;;;9.65;3.55;;;5.90;99.90;;;;;;5036793;28;20607;-65
2022/03/02 03:44:47;;;;;;;8.88;3.30;;;6.00;99.90;;;;;;5033134;28;20493;-64
2022/03/02 03:47:15;;;;;;;7.05;3.50;;;6.00;99.90;;;;;;5044626;28;20056;-66
2022/03/02 03:49:43;;;;;;;8.55;3.92;;;6.00;99.90;;;;;;5050613;28;20396;-65
2022/03/02 03:52:11;;;;;;;8.18;3.97;;;6.00;99.90;;;;;;5048607;28;20049;-64
2022/03/02 03:54:39;;;;;;;9.95;3.72;;;6.00;99.90;;;;;;5049178;28;20059;-66
2022/03/02 03:57:07;;;;;;;10.73;3.70;;;6.00;99.90;;;;;;5071214;28;20052;-65
2022/03/02 03:59:34;;;;;;;7.95;4.00;;;6.00;99.90;;;;;;5051979;28;20051;-65
2022/03/02 04:02:02;;;;;;;8.38;3.28;;;6.00;99.90;;;;;;5051426;28;20068;-66
2022/03/02 04:04:30;;;;;;;7.35;2.88;;;6.00;99.90;;;;;;5035071;28;20052;-65
2022/03/02 04:06:58;;;;;;;7.53;3.72;;;6.00;99.90;;;;;;5044609;28;20435;-65
2022/03/02 04:09:26;;;;;;;6.35;2.90;;;6.00;99.90;;;;;;5048693;28;20716;-65
2022/03/02 04:11:53;;;;;;;5.50;2.65;;;6.00;99.90;;;;;;5051012;28;20407;-62
2022/03/02 04:14:21;;;;;;;5.78;2.83;;;6.00;99.90;;;;;;5047927;28;20052;-64
2022/03/02 04:16:49;;;;;;;7.22;3.58;;;6.00;99.90;;;;;;5028466;28;20508;-60
2022/03/02 04:19:18;;;;;;;6.97;3.38;;;6.00;99.90;;;;;;5045874;28;20040;-62
2022/03/02 04:21:47;;;;;;;7.63;3.50;;;6.00;99.90;;;;;;5048588;28;20045;-66
2022/03/02 04:24:14;;;;;;;8.85;3.60;;;6.00;99.90;;;;;;5058475;28;20064;-66
2022/03/02 04:26:42;;;;;;;5.70;3.15;;;6.10;99.90;;;;;;5047929;28;20439;-66
2022/03/02 04:29:10;;;;;;;7.60;3.50;;;6.00;99.90;;;;;;5033151;28;20049;-66
2022/03/02 04:31:37;;;;;;;9.82;4.15;;;6.00;99.90;;;;;;5049087;28;20037;-65
2022/03/02 04:34:05;;;;;;;14.45;3.63;;;6.10;99.90;;;;;;5044651;28;20095;-66
2022/03/02 04:36:33;;;;;;;9.00;3.97;;;6.10;99.90;;;;;;5031222;28;20044;-66
2022/03/02 04:39:01;;;;;;;9.88;4.43;;;6.00;99.90;;;;;;5048099;28;20064;-66
2022/03/02 04:41:28;;;;;;;10.07;4.03;;;6.00;99.90;;;;;;5041061;28;20036;-66
2022/03/02 04:43:56;;;;;;;6.25;3.63;;;6.00;99.90;;;;;;5032625;28;20551;-66
2022/03/02 04:46:24;;;;;;;7.55;3.60;;;6.00;99.90;;;;;;5040389;28;20044;-66
2022/03/02 04:48:52;;;;;;;12.18;4.40;;;6.00;99.90;;;;;;5036193;28;20045;-65
2022/03/02 04:51:19;;;;;;;12.57;4.63;;;6.00;99.90;;;;;;5044760;28;20041;-66
2022/03/02 04:53:50;;;;;;;11.15;4.68;;;6.10;99.90;;;;;;5065701;28;20044;-66
2022/03/02 04:56:18;;;;;;;11.82;4.85;;;6.10;99.90;;;;;;5064651;28;20393;-66
2022/03/02 04:58:45;;;;;;;12.20;4.25;;;6.00;99.90;;;;;;5022998;28;20051;-66
2022/03/02 05:01:13;;;;;;;8.02;4.53;;;6.00;99.90;;;;;;5041983;28;20073;-65
2022/03/02 05:03:40;;;;;;;9.15;5.25;;;6.10;99.90;;;;;;5033197;28;20484;-63
2022/03/02 05:06:08;;;;;;;10.30;4.35;;;6.10;99.90;;;;;;5037320;28;20056;-64
2022/03/02 05:08:36;;;;;;;11.63;4.63;;;6.00;99.90;;;;;;5040510;28;20065;-65
2022/03/02 05:11:04;;;;;;;8.02;4.32;;;6.10;99.90;;;;;;5033271;28;20037;-65
2022/03/02 05:13:31;;;;;;;9.60;4.70;;;6.10;99.90;;;;;;5031454;28;20053;-62
2022/03/02 05:15:59;;;;;;;9.68;4.95;;;6.10;99.90;;;;;;5041484;28;20054;-63
2022/03/02 05:18:27;;;;;;;10.43;4.95;;;6.10;99.90;;;;;;5044158;28;20041;-62
2022/03/02 05:20:54;;;;;;;9.30;4.90;;;6.10;99.90;;;;;;5050444;28;20060;-63
2022/03/02 05:23:22;;;;;;;11.63;5.10;;;6.10;99.90;;;;;;5059548;28;20046;-62
2022/03/02 05:25:50;;;;;;;10.57;4.28;;;6.10;99.90;;;;;;5034255;28;20037;-62
2022/03/02 05:28:18;;;;;;;10.77;5.38;;;6.10;99.90;;;;;;5043354;28;20048;-62
2022/03/02 05:30:45;;;;;;;13.18;5.25;;;6.10;99.90;;;;;;5053867;28;20053;-63
2022/03/02 05:33:13;;;;;;;10.95;5.38;;;6.10;99.90;;;;;;5039450;28;20045;-63
2022/03/02 05:35:40;;;;;;;10.68;5.28;;;6.10;99.90;;;;;;5042678;28;20045;-63
2022/03/02 05:38:08;;;;;;;12.50;5.15;;;6.00;99.90;;;;;;5037596;28;20054;-63
2022/03/02 05:40:36;;;;;;;9.77;5.20;;;6.00;99.90;;;;;;5045629;28;20045;-63
2022/03/02 05:43:03;;;;;;;13.30;5.28;;;6.00;99.90;;;;;;5013940;28;20041;-63
2022/03/02 05:45:31;;;;;;;14.27;5.53;;;6.00;99.90;;;;;;5034461;28;20056;-65
2022/03/02 05:47:59;;;;;;;15.10;5.75;;;6.00;99.90;;;;;;5030628;28;20041;-66
2022/03/02 05:50:26;;;;;;;14.60;6.82;;;6.00;99.90;;;;;;5028114;28;20057;-65
2022/03/02 05:52:54;;;;;;;16.42;6.45;;;6.00;99.90;;;;;;5038935;28;20392;-66
2022/03/02 05:55:22;;;;;;;21.30;6.43;;;6.00;99.90;;;;;;5032621;28;20041;-66
2022/03/02 05:57:49;;;;;;;14.40;6.63;;;6.00;99.90;;;;;;5038114;28;20045;-65
2022/03/02 06:00:17;;;;;;;16.20;7.50;;;6.00;99.90;;;;;;5029571;28;20072;-63
2022/03/02 06:02:45;;;;;;;13.77;6.40;;;6.00;99.90;;;;;;5027497;28;20041;-66
2022/03/02 06:05:14;;;;;;;21.08;7.57;;;6.00;99.90;;;;;;5044281;28;20040;-63
2022/03/02 06:07:41;;;;;;;22.48;8.25;;;6.10;99.90;;;;;;5028139;28;20042;-64
2022/03/02 06:10:11;;;;;;;20.55;8.63;;;6.10;99.90;;;;;;5036537;28;20049;-62
2022/03/02 06:12:39;;;;;;;24.15;7.55;;;6.00;99.90;;;;;;5041307;28;20041;-62
2022/03/02 06:15:08;;;;;;;21.92;9.02;;;6.00;99.90;;;;;;5046712;28;20064;-62
2022/03/02 06:17:36;;;;;;;26.70;9.38;;;6.00;99.90;;;;;;5041293;28;20052;-64
2022/03/02 06:20:04;;;;;;;28.10;9.70;;;6.10;99.90;;;;;;5048850;28;20424;-63
2022/03/02 06:22:36;;;;;;;24.88;9.70;;;6.00;99.90;;;;;;5035300;28;20049;-63
2022/03/02 06:25:06;;;;;;;26.60;11.45;;;6.00;99.90;;;;;;5037819;28;20037;-64
2022/03/02 06:27:35;;;;;;;27.23;10.20;;;6.00;99.90;;;;;;5046598;28;20055;-61
2022/03/02 06:30:06;;;;;;;33.60;11.27;;;6.00;99.90;;;;;;5018844;28;20046;-62
2022/03/02 06:32:34;;;;;;;32.67;12.40;;;6.00;99.90;;;;;;5051291;28;20044;-62
2022/03/02 06:35:03;;;;;;;38.78;13.90;;;6.00;99.90;;;;;;5051869;28;20060;-62
2022/03/02 06:37:33;;;;;;;40.55;14.13;;;6.00;99.90;;;;;;5057956;28;20794;-61
2022/03/02 06:40:08;;;;;;;44.20;14.52;;;6.00;99.90;;;;;;5046610;28;20502;-62
2022/03/02 06:42:47;;;;;;;46.10;16.10;;;6.00;99.90;;;;;;5051625;28;20065;-63
2022/03/02 06:45:27;;;;;;;44.60;15.57;;;6.00;99.90;;;;;;5061567;28;20063;-65
2022/03/02 06:48:05;;;;;;;52.22;15.57;;;6.00;99.90;;;;;;5045933;28;20759;-64
2022/03/02 06:50:40;;;;;;;58.47;16.45;;;6.00;99.90;;;;;;5031418;28;20436;-65
2022/03/02 06:53:12;;;;;;;57.38;16.65;;;6.00;99.90;;;;;;5029669;28;20048;-65
2022/03/02 06:55:45;;;;;;;64.63;18.20;;;6.00;99.90;;;;;;5041788;28;20172;-63
2022/03/02 06:58:14;;;;;;;58.55;16.10;;;6.00;99.90;;;;;;5049684;28;20040;-64
2022/03/02 07:00:51;;;;;;;63.85;18.00;;;6.00;99.90;;;;;;5035624;28;20041;-65
2022/03/02 07:03:26;;;;;;;65.43;18.20;;;6.00;99.90;;;;;;5051721;28;20526;-65
2022/03/02 07:05:54;;;;;;;57.53;17.05;;;6.00;99.90;;;;;;5028565;28;20057;-64
2022/03/02 07:08:24;;;;;;;60.70;18.13;;;6.00;99.90;;;;;;5044610;28;20045;-65
2022/03/02 07:10:52;;;;;;;72.25;20.45;;;6.00;99.90;;;;;;5027780;28;20046;-65
2022/03/02 07:13:21;;;;;;;78.68;21.67;;;6.00;99.90;;;;;;5027946;28;20631;-66
2022/03/02 07:15:49;;;;;;;87.13;21.15;;;6.00;99.90;;;;;;5046762;28;20037;-66
2022/03/02 07:18:17;;;;;;;71.25;20.85;;;6.00;99.90;;;;;;5064728;28;20056;-64
2022/03/02 07:20:47;;;;;;;65.72;19.27;;;6.00;99.90;;;;;;5035263;28;20053;-65
2022/03/02 07:23:16;;;;;;;;;;;6.00;99.90;;;;;;5032806;28;20060;-64
2022/03/02 07:25:45;;;;;;;61.78;17.73;;;6.00;99.90;;;;;;5050416;28;19920;-65
2022/03/02 07:28:15;;;;;;;71.78;19.98;;;6.00;99.90;;;;;;5066584;28;20515;-65
2022/03/02 07:30:43;;;;;;;;;;;6.00;99.90;;;;;;5063916;28;20053;-65
2022/03/02 07:33:15;;;;;;;58.63;17.50;;;6.00;99.90;;;;;;5053347;28;19931;-63
2022/03/02 07:35:54;;;;;;;65.82;17.23;;;5.90;99.90;;;;;;5038136;28;20053;-65
2022/03/02 07:38:22;;;;;;;53.53;16.27;;;6.00;99.90;;;;;;5054231;28;20045;-64
2022/03/02 07:40:49;;;;;;;55.33;17.27;;;6.00;99.90;;;;;;5030842;28;20049;-64
2022/03/02 07:43:19;;;;;;;44.92;14.63;;;6.00;99.90;;;;;;5041275;28;20313;-64
2022/03/02 07:45:47;;;;;;;59.65;16.45;;;6.00;99.90;;;;;;5046196;28;20053;-64
2022/03/02 07:48:15;;;;;;;43.90;14.73;;;6.00;99.90;;;;;;5022362;28;20052;-64
2022/03/02 07:50:44;;;;;;;52.08;15.25;;;6.00;99.90;;;;;;5038416;28;20049;-64
2022/03/02 07:53:18;;;;;;;46.13;15.32;;;6.00;99.90;;;;;;5023540;28;20071;-64
2022/03/02 07:55:47;;;;;;;41.80;13.30;;;6.00;99.90;;;;;;5024367;28;20041;-64
2022/03/02 07:58:16;;;;;;;43.55;15.68;;;6.10;99.90;;;;;;5015186;28;20053;-64
2022/03/02 08:00:48;;;;;;;38.92;12.40;;;6.10;99.90;;;;;;5034448;28;20045;-65
2022/03/02 08:03:17;;;;;;;42.30;14.80;;;6.00;99.90;;;;;;5036337;28;20056;-64
2022/03/02 08:05:45;;;;;;;40.42;12.70;;;6.10;99.90;;;;;;5035350;28;20052;-63
2022/03/02 08:08:14;;;;;;;40.97;12.10;;;6.10;99.90;;;;;;5035800;28;20056;-63
2022/03/02 08:10:44;;;;;;;44.60;15.35;;;6.10;99.90;;;;;;5029170;28;20052;-63
2022/03/02 08:13:15;;;;;;;37.08;13.70;;;6.10;99.90;;;;;;5035843;28;20137;-63
2022/03/02 08:15:43;;;;;;;52.50;15.50;;;6.10;99.90;;;;;;5051080;28;20063;-63
2022/03/02 08:18:11;;;;;;;45.72;16.13;;;6.20;99.90;;;;;;5036892;28;20049;-64
2022/03/02 08:20:57;;;;;;;50.45;16.63;;;6.10;99.90;;;;;;5029639;28;20045;-64
2022/03/02 08:23:33;;;;;;;51.00;16.27;;;6.10;99.90;;;;;;5027954;28;20037;-64
2022/03/02 08:26:01;;;;;;;53.17;16.85;;;6.10;99.90;;;;;;5033315;28;20037;-64
2022/03/02 08:28:34;;;;;;;45.88;15.63;;;6.10;99.90;;;;;;5037529;28;20041;-64
2022/03/02 08:31:02;;;;;;;51.88;16.45;;;6.10;99.90;;;;;;5047404;28;20059;-64
2022/03/02 08:33:34;;;;;;;53.60;16.30;;;6.10;99.90;;;;;;5030976;28;20049;-64
2022/03/02 08:36:03;;;;;;;49.50;16.50;;;6.10;99.90;;;;;;5037242;28;20497;-64
2022/03/02 08:38:35;;;;;;;51.67;16.65;;;6.20;99.90;;;;;;5032470;28;20045;-65
2022/03/02 08:41:03;;;;;;;52.85;16.30;;;6.20;99.90;;;;;;5020251;28;20060;-64
2022/03/02 08:43:34;;;;;;;42.40;15.02;;;6.20;99.90;;;;;;5038805;28;20407;-64
2022/03/02 08:46:04;;;;;;;53.42;16.75;;;6.20;99.90;;;;;;5028536;28;20045;-64
2022/03/02 08:48:34;;;;;;;44.05;14.57;;;6.20;99.90;;;;;;5042522;28;20044;-65
2022/03/02 08:51:04;;;;;;;44.47;16.80;;;6.20;99.90;;;;;;5057489;28;20037;-63
2022/03/02 08:53:32;;;;;;;;;;;6.30;99.90;;;;;;5058000;28;20045;-64
2022/03/02 08:56:03;;;;;;;48.35;16.55;;;6.20;99.90;;;;;;5048703;28;19921;-64
2022/03/02 08:58:31;;;;;;;43.85;16.23;;;6.30;99.90;;;;;;5045360;28;20041;-64
2022/03/02 09:01:00;;;;;;;42.25;15.07;;;6.30;99.90;;;;;;5029916;28;20041;-63
2022/03/02 09:03:33;;;;;;;47.67;17.40;;;6.30;99.90;;;;;;5048545;28;20036;-63
2022/03/02 09:06:03;;;;;;;42.95;17.90;;;6.30;99.90;;;;;;5051827;28;20041;-63
2022/03/02 09:08:38;;;;;;;55.20;18.15;;;6.30;99.90;;;;;;5057350;28;20044;-64
2022/03/02 09:11:08;;;;;;;52.07;20.13;;;6.40;99.90;;;;;;5044039;28;20056;-62
2022/03/02 09:13:37;;;;;;;65.40;22.23;;;6.30;99.90;;;;;;5017940;28;20409;-63
2022/03/02 09:16:07;;;;;;;59.75;20.67;;;6.40;99.90;;;;;;5034446;28;20044;-64
2022/03/02 09:18:34;;;;;;;60.67;22.10;;;6.40;99.90;;;;;;5032977;28;20335;-64
2022/03/02 09:21:07;;;;;;;59.75;21.65;;;6.40;99.90;;;;;;5042957;28;20052;-65
2022/03/02 09:23:40;;;;;;;53.42;20.30;;;6.40;99.90;;;;;;5039543;28;20044;-65
2022/03/02 09:26:13;;;;;;;63.05;23.17;;;6.50;99.90;;;;;;5058211;28;20045;-66
2022/03/02 09:28:46;;;;;;;60.03;22.52;;;6.40;99.90;;;;;;5046119;28;20508;-66
2022/03/02 09:31:16;;;;;;;55.50;20.77;;;6.40;99.90;;;;;;5034240;28;20047;-65
2022/03/02 09:33:49;;;;;;;55.83;21.73;;;6.50;99.90;;;;;;5061588;28;20043;-64
2022/03/02 09:36:22;;;;;;;48.08;18.80;;;6.50;99.90;;;;;;5015555;28;20044;-66
2022/03/02 09:38:51;;;;;;;58.10;21.02;;;6.40;99.90;;;;;;5046054;28;20045;-66
2022/03/02 09:41:49;;;;;;;49.78;20.17;;;6.40;99.90;;;;;;5012250;28;20080;-66
2022/03/02 09:44:20;;;;;;;52.88;20.55;;;6.50;99.90;;;;;;5038556;28;20041;-65
2022/03/02 09:46:51;;;;;;;47.65;19.13;;;6.50;99.90;;;;;;5041887;28;20053;-65
2022/03/02 09:49:22;;;;;;;50.35;19.15;;;6.50;99.90;;;;;;5024404;28;20041;-65
2022/03/02 09:51:56;;;;;;;51.13;20.55;;;6.50;99.90;;;;;;5021122;28;20052;-65
2022/03/02 09:54:25;;;;;;;46.30;18.15;;;6.50;99.90;;;;;;5054165;28;20060;-65
2022/03/02 09:56:55;;;;;;;46.90;20.50;;;6.50;99.90;;;;;;5047107;28;20049;-64
2022/03/02 09:59:26;;;;;;;43.63;18.08;;;6.50;99.90;;;;;;5057749;28;20048;-62
2022/03/02 10:01:56;;;;;;;43.88;17.83;;;6.50;99.90;;;;;;5043512;28;20049;-62
2022/03/02 10:04:29;;;;;;;48.90;18.75;;;6.50;99.90;;;;;;5029601;28;20052;-64
2022/03/02 10:07:26;;;;;;;38.60;16.50;;;6.50;99.90;;;;;;5030147;28;20496;-65
2022/03/02 10:09:51;;;;;;;41.35;16.52;;;6.60;99.90;;;;;;5033565;28;20049;-64
2022/03/02 10:12:20;;;;;;;44.33;16.90;;;6.60;99.90;;;;;;5009706;28;20057;-65
2022/03/02 10:14:49;;;;;;;43.20;17.35;;;6.60;99.90;;;;;;5033172;28;20052;-65
2022/03/02 10:17:20;;;;;;;35.50;15.23;;;6.60;99.90;;;;;;5036010;28;20125;-64
2022/03/02 10:19:54;;;;;;;42.08;16.42;;;6.70;99.90;;;;;;5040499;28;20045;-64
2022/03/02 10:22:42;;;;;;;41.92;16.95;;;6.70;99.90;;;;;;5037258;28;20403;-65
2022/03/02 10:25:14;;;;;;;40.03;16.02;;;6.70;99.90;;;;;;5054451;28;20807;-63
2022/03/02 10:28:02;;;;;;;38.92;15.90;;;6.70;99.90;;;;;;5047790;28;20040;-63
2022/03/02 10:30:40;;;;;;;37.50;16.05;;;6.60;99.90;;;;;;5031556;28;20290;-64
2022/03/02 10:33:25;;;;;;;43.45;16.10;;;6.60;99.90;;;;;;5042551;28;20041;-64
2022/03/02 10:36:09;;;;;;;36.88;16.35;;;6.60;99.90;;;;;;5042345;28;20040;-64
2022/03/02 10:38:52;;;;;;;40.00;16.17;;;6.60;99.90;;;;;;5069674;28;20490;-64
2022/03/02 10:41:20;;;;;;;38.17;16.35;;;6.60;99.90;;;;;;5071240;28;20097;-65
2022/03/02 10:43:57;;;;;;;44.53;18.33;;;6.60;99.90;;;;;;5041494;28;20048;-63
2022/03/02 10:46:26;;;;;;;40.40;16.02;;;6.60;99.90;;;;;;5030377;28;20046;-67
2022/03/02 10:49:06;;;;;;;45.97;17.65;;;6.70;99.90;;;;;;5049389;28;20060;-63
2022/03/02 10:51:35;;;;;;;50.15;19.40;;;6.60;99.90;;;;;;5056183;28;20040;-62
2022/03/02 10:54:05;;;;;;;43.03;16.45;;;6.70;99.90;;;;;;5053032;28;20041;-62
2022/03/02 10:56:39;;;;;;;42.60;19.08;;;6.70;99.90;;;;;;5030920;28;20051;-63
2022/03/02 10:59:10;;;;;;;44.15;17.35;;;6.70;99.90;;;;;;5063663;28;20045;-67
2022/03/02 11:01:38;;;;;;;47.55;18.92;;;6.70;99.90;;;;;;5043309;28;20037;-62
2022/03/02 11:04:07;;;;;;;45.15;19.05;;;6.70;99.90;;;;;;5070641;28;20045;-62
2022/03/02 11:06:37;;;;;;;42.85;17.90;;;6.70;99.90;;;;;;5038530;28;20050;-62
2022/03/02 11:09:05;;;;;;;44.08;17.40;;;6.70;99.90;;;;;;5026023;28;20049;-62
2022/03/02 11:11:37;;;;;;;48.50;17.55;;;6.70;99.90;;;;;;5048946;28;20052;-62
2022/03/02 11:14:09;;;;;;;41.67;17.63;;;6.70;99.90;;;;;;5022568;28;20041;-63
2022/03/02 11:16:37;;;;;;;37.20;16.05;;;6.70;99.90;;;;;;5022395;28;20057;-62
2022/03/02 11:19:13;;;;;;;41.45;17.63;;;6.70;99.90;;;;;;5046739;28;20044;-63
2022/03/02 11:21:43;;;;;;;37.35;15.88;;;6.70;99.90;;;;;;5037277;28;20051;-62
2022/03/02 11:24:15;;;;;;;;;;;6.70;99.90;;;;;;5068330;28;20052;-64
2022/03/02 11:26:48;;;;;;;34.03;13.63;;;6.70;99.90;;;;;;5036400;28;19924;-62
2022/03/02 11:29:18;;;;;;;31.70;14.63;;;6.80;99.90;;;;;;5040708;28;20400;-63
2022/03/02 11:31:47;;;;;;;36.10;17.27;;;6.70;99.90;;;;;;5008896;28;20057;-63
2022/03/02 11:34:18;;;;;;;38.33;15.73;;;6.70;99.90;;;;;;5066304;28;20044;-66
2022/03/02 11:36:49;;;;;;;41.35;16.10;;;6.70;99.90;;;;;;5049153;28;20049;-63
2022/03/02 11:39:19;;;;;;;41.58;15.98;;;6.70;99.90;;;;;;5047498;28;20041;-62
2022/03/02 11:41:51;;;;;;;37.50;16.55;;;6.70;99.90;;;;;;5050136;28;20052;-65
2022/03/02 11:44:40;;;;;;;39.75;17.23;;;6.80;99.90;;;;;;5064138;28;20051;-66
2022/03/02 11:47:17;;;;;;;39.85;18.63;;;6.80;99.90;;;;;;5049931;28;20500;-66
2022/03/02 11:49:48;;;;;;;47.35;19.20;;;6.80;99.90;;;;;;5070104;28;20045;-67
2022/03/02 11:52:17;;;;;;;44.97;17.10;;;6.70;99.90;;;;;;5058409;28;20049;-65
2022/03/02 11:54:49;;;;;;;50.97;19.73;;;6.80;99.90;;;;;;5053012;28;20041;-69
2022/03/02 11:57:19;;;;;;;45.20;18.33;;;6.80;99.90;;;;;;5031824;28;20396;-64
2022/03/02 11:59:48;;;;;;;42.40;18.30;;;6.80;99.90;;;;;;5051277;28;20514;-67
2022/03/02 12:02:22;;;;;;;45.10;18.50;;;6.80;99.90;;;;;;5050912;28;20049;-67
2022/03/02 12:05:00;;;;;;;49.20;18.00;;;6.80;99.90;;;;;;5039448;28;20053;-65
2022/03/02 12:07:42;;;;;;;45.17;18.73;;;6.80;99.90;;;;;;5034711;28;20046;-67
2022/03/02 12:10:23;;;;;;;40.80;17.40;;;6.80;99.90;;;;;;5035822;28;20075;-68
2022/03/02 12:12:52;;;;;;;45.15;18.15;;;6.80;99.90;;;;;;5043150;28;20062;-64
2022/03/02 12:15:22;;;;;;;41.70;18.42;;;6.80;99.90;;;;;;5053296;28;20064;-65
2022/03/02 12:17:50;;;;;;;;;;;6.80;99.90;;;;;;5037785;28;20048;-66
2022/03/02 12:20:20;;;;;;;45.42;17.77;;;6.80;99.90;;;;;;5049203;28;19942;-68
2022/03/02 12:22:54;;;;;;;43.08;17.17;;;6.90;99.90;;;;;;5055190;28;20519;-68
2022/03/02 12:25:24;;;;;;;42.88;18.40;;;6.80;99.90;;;;;;5069519;28;20040;-67
2022/03/02 12:28:02;;;;;;;42.42;18.08;;;6.90;99.90;;;;;;5069346;28;20068;-67
2022/03/02 12:30:36;;;;;;;50.03;21.10;;;6.80;99.90;;;;;;5035218;28;20051;-68
2022/03/02 12:33:06;;;;;;;43.05;19.27;;;6.90;99.90;;;;;;5060366;28;20060;-67
2022/03/02 12:35:34;;;;;;;40.17;18.80;;;6.90;99.90;;;;;;5050303;28;20501;-66
2022/03/02 12:38:07;;;;;;;38.15;17.52;;;6.90;99.90;;;;;;5053796;28;20578;-68
2022/03/02 12:40:40;;;;;;;42.63;18.50;;;6.90;99.90;;;;;;5034120;28;20400;-67
2022/03/02 12:43:14;;;;;;;47.63;20.85;;;6.90;99.90;;;;;;5055632;28;20044;-63
2022/03/02 12:45:45;;;;;;;47.67;19.25;;;7.00;99.90;;;;;;5035225;28;20060;-66
2022/03/02 12:48:13;;;;;;;40.72;18.50;;;7.00;99.90;;;;;;5052175;28;20044;-66
2022/03/02 12:50:43;;;;;;;41.80;18.20;;;7.10;99.90;;;;;;5066398;28;20048;-66
2022/03/02 12:53:13;;;;;;;;;;;7.10;99.90;;;;;;5047745;28;20060;-66
2022/03/02 12:55:42;;;;;;;40.85;19.40;;;7.10;99.90;;;;;;5018779;28;20376;-65
2022/03/02 12:58:10;;;;;;;30.67;14.52;;;7.10;99.90;;;;;;5055014;28;20044;-66
2022/03/02 13:00:38;;;;;;;36.33;16.52;;;7.10;99.90;;;;;;5060371;28;20041;-66